sensor_id;sensor_type;location;lat;lon;timestamp;temperature;humidity
38333;DHT22;25748;46.670;14.272;2024-03-07T00:02:17;3.40;66.80
38333;DHT22;25748;46.670;14.272;2024-03-07T00:04:43;3.40;66.70
38333;DHT22;25748;46.670;14.272;2024-03-07T00:07:09;3.30;66.80
38333;DHT22;25748;46.670;14.272;2024-03-07T00:09:35;3.30;66.60
38333;DHT22;25748;46.670;14.272;2024-03-07T00:12:02;3.20;66.90
38333;DHT22;25748;46.670;14.272;2024-03-07T00:14:27;3.30;67.10
38333;DHT22;25748;46.670;14.272;2024-03-07T00:16:57;3.20;67.00
38333;DHT22;25748;46.670;14.272;2024-03-07T00:19:24;3.10;66.80
38333;DHT22;25748;46.670;14.272;2024-03-07T00:21:57;3.10;67.10
38333;DHT22;25748;46.670;14.272;2024-03-07T00:24:23;3.10;67.40
38333;DHT22;25748;46.670;14.272;2024-03-07T00:26:49;3.10;67.50
38333;DHT22;25748;46.670;14.272;2024-03-07T00:29:19;3.00;67.40
38333;DHT22;25748;46.670;14.272;2024-03-07T00:31:46;3.00;67.70
38333;DHT22;25748;46.670;14.272;2024-03-07T00:34:15;2.90;67.40
38333;DHT22;25748;46.670;14.272;2024-03-07T00:36:46;2.90;67.90
38333;DHT22;25748;46.670;14.272;2024-03-07T00:39:12;2.80;67.70
38333;DHT22;25748;46.670;14.272;2024-03-07T00:41:39;2.70;67.60
38333;DHT22;25748;46.670;14.272;2024-03-07T00:44:05;2.70;68.10
38333;DHT22;25748;46.670;14.272;2024-03-07T00:46:31;2.70;68.20
38333;DHT22;25748;46.670;14.272;2024-03-07T00:48:57;2.70;68.30
38333;DHT22;25748;46.670;14.272;2024-03-07T00:51:22;2.60;68.10
38333;DHT22;25748;46.670;14.272;2024-03-07T00:53:48;2.50;68.10
38333;DHT22;25748;46.670;14.272;2024-03-07T00:56:14;2.50;68.00
38333;DHT22;25748;46.670;14.272;2024-03-07T00:58:39;2.40;68.10
38333;DHT22;25748;46.670;14.272;2024-03-07T01:01:06;2.40;68.30
38333;DHT22;25748;46.670;14.272;2024-03-07T01:03:32;2.40;68.30
38333;DHT22;25748;46.670;14.272;2024-03-07T01:05:57;2.30;68.30
38333;DHT22;25748;46.670;14.272;2024-03-07T01:08:23;2.30;68.60
38333;DHT22;25748;46.670;14.272;2024-03-07T01:10:48;2.30;68.90
38333;DHT22;25748;46.670;14.272;2024-03-07T01:13:14;2.30;69.10
38333;DHT22;25748;46.670;14.272;2024-03-07T01:15:45;2.30;69.20
38333;DHT22;25748;46.670;14.272;2024-03-07T01:18:11;2.30;69.20
38333;DHT22;25748;46.670;14.272;2024-03-07T01:20:36;2.20;69.30
38333;DHT22;25748;46.670;14.272;2024-03-07T01:23:02;2.20;69.00
38333;DHT22;25748;46.670;14.272;2024-03-07T01:25:28;2.20;69.20
38333;DHT22;25748;46.670;14.272;2024-03-07T01:27:53;2.10;68.90
38333;DHT22;25748;46.670;14.272;2024-03-07T01:30:21;2.10;69.30
38333;DHT22;25748;46.670;14.272;2024-03-07T01:32:48;2.00;69.50
38333;DHT22;25748;46.670;14.272;2024-03-07T01:35:14;2.00;69.30
38333;DHT22;25748;46.670;14.272;2024-03-07T01:37:40;2.00;69.30
38333;DHT22;25748;46.670;14.272;2024-03-07T01:40:06;1.90;69.40
38333;DHT22;25748;46.670;14.272;2024-03-07T01:42:32;1.90;69.50
38333;DHT22;25748;46.670;14.272;2024-03-07T01:44:57;1.90;69.60
38333;DHT22;25748;46.670;14.272;2024-03-07T01:47:24;1.80;69.10
38333;DHT22;25748;46.670;14.272;2024-03-07T01:49:50;1.70;69.00
38333;DHT22;25748;46.670;14.272;2024-03-07T01:52:16;1.70;69.40
38333;DHT22;25748;46.670;14.272;2024-03-07T01:54:42;1.70;69.60
38333;DHT22;25748;46.670;14.272;2024-03-07T01:57:08;1.70;69.40
38333;DHT22;25748;46.670;14.272;2024-03-07T01:59:34;1.70;69.60
38333;DHT22;25748;46.670;14.272;2024-03-07T02:02:02;1.60;69.50
38333;DHT22;25748;46.670;14.272;2024-03-07T02:04:28;1.60;69.60
38333;DHT22;25748;46.670;14.272;2024-03-07T02:06:54;1.60;69.60
38333;DHT22;25748;46.670;14.272;2024-03-07T02:09:20;1.50;69.40
38333;DHT22;25748;46.670;14.272;2024-03-07T02:11:49;1.50;69.60
38333;DHT22;25748;46.670;14.272;2024-03-07T02:14:15;1.40;69.30
38333;DHT22;25748;46.670;14.272;2024-03-07T02:16:42;1.40;69.40
38333;DHT22;25748;46.670;14.272;2024-03-07T02:19:08;1.40;69.40
38333;DHT22;25748;46.670;14.272;2024-03-07T02:21:35;1.30;69.30
38333;DHT22;25748;46.670;14.272;2024-03-07T02:24:02;1.30;69.60
38333;DHT22;25748;46.670;14.272;2024-03-07T02:26:27;1.30;69.50
38333;DHT22;25748;46.670;14.272;2024-03-07T02:28:53;1.30;69.60
38333;DHT22;25748;46.670;14.272;2024-03-07T02:31:19;1.30;69.90
38333;DHT22;25748;46.670;14.272;2024-03-07T02:33:45;1.30;70.10
38333;DHT22;25748;46.670;14.272;2024-03-07T02:36:11;1.30;70.40
38333;DHT22;25748;46.670;14.272;2024-03-07T02:38:37;1.30;70.50
38333;DHT22;25748;46.670;14.272;2024-03-07T02:41:03;1.30;70.40
38333;DHT22;25748;46.670;14.272;2024-03-07T02:43:28;1.30;70.30
38333;DHT22;25748;46.670;14.272;2024-03-07T02:45:54;1.30;70.40
38333;DHT22;25748;46.670;14.272;2024-03-07T02:48:20;1.30;70.60
38333;DHT22;25748;46.670;14.272;2024-03-07T02:50:46;1.20;70.40
38333;DHT22;25748;46.670;14.272;2024-03-07T02:53:11;1.20;70.80
38333;DHT22;25748;46.670;14.272;2024-03-07T02:55:37;1.20;70.90
38333;DHT22;25748;46.670;14.272;2024-03-07T02:58:03;1.20;70.80
38333;DHT22;25748;46.670;14.272;2024-03-07T03:00:28;1.20;70.80
38333;DHT22;25748;46.670;14.272;2024-03-07T03:02:56;1.20;70.80
38333;DHT22;25748;46.670;14.272;2024-03-07T03:05:22;1.10;70.20
38333;DHT22;25748;46.670;14.272;2024-03-07T03:07:48;1.10;70.40
38333;DHT22;25748;46.670;14.272;2024-03-07T03:10:27;1.10;70.60
38333;DHT22;25748;46.670;14.272;2024-03-07T03:12:55;1.10;70.80
38333;DHT22;25748;46.670;14.272;2024-03-07T03:15:24;1.00;70.50
38333;DHT22;25748;46.670;14.272;2024-03-07T03:17:51;1.00;70.50
38333;DHT22;25748;46.670;14.272;2024-03-07T03:20:17;0.90;70.40
38333;DHT22;25748;46.670;14.272;2024-03-07T03:22:54;0.90;70.60
38333;DHT22;25748;46.670;14.272;2024-03-07T03:25:21;0.90;70.50
38333;DHT22;25748;46.670;14.272;2024-03-07T03:27:47;0.80;70.20
38333;DHT22;25748;46.670;14.272;2024-03-07T03:30:14;0.80;70.30
38333;DHT22;25748;46.670;14.272;2024-03-07T03:32:41;0.80;70.50
38333;DHT22;25748;46.670;14.272;2024-03-07T03:35:07;0.70;69.90
38333;DHT22;25748;46.670;14.272;2024-03-07T03:37:42;0.70;70.40
38333;DHT22;25748;46.670;14.272;2024-03-07T03:40:08;0.70;70.80
38333;DHT22;25748;46.670;14.272;2024-03-07T03:42:39;0.70;70.70
38333;DHT22;25748;46.670;14.272;2024-03-07T03:45:05;0.70;71.00
38333;DHT22;25748;46.670;14.272;2024-03-07T03:47:35;0.70;71.00
38333;DHT22;25748;46.670;14.272;2024-03-07T03:50:07;0.70;71.00
38333;DHT22;25748;46.670;14.272;2024-03-07T03:52:34;0.70;71.10
38333;DHT22;25748;46.670;14.272;2024-03-07T03:55:03;0.70;71.20
38333;DHT22;25748;46.670;14.272;2024-03-07T03:57:33;0.60;70.80
38333;DHT22;25748;46.670;14.272;2024-03-07T03:59:59;0.60;71.00
38333;DHT22;25748;46.670;14.272;2024-03-07T04:02:25;0.60;70.90
38333;DHT22;25748;46.670;14.272;2024-03-07T04:04:52;0.60;70.90
38333;DHT22;25748;46.670;14.272;2024-03-07T04:07:21;0.50;70.70
38333;DHT22;25748;46.670;14.272;2024-03-07T04:09:47;0.50;70.70
38333;DHT22;25748;46.670;14.272;2024-03-07T04:12:13;0.50;70.80
38333;DHT22;25748;46.670;14.272;2024-03-07T04:14:41;0.40;70.70
38333;DHT22;25748;46.670;14.272;2024-03-07T04:17:07;0.40;70.60
38333;DHT22;25748;46.670;14.272;2024-03-07T04:19:36;0.30;70.50
38333;DHT22;25748;46.670;14.272;2024-03-07T04:22:04;0.40;70.70
38333;DHT22;25748;46.670;14.272;2024-03-07T04:24:32;0.30;70.80
38333;DHT22;25748;46.670;14.272;2024-03-07T04:27:02;0.30;71.00
38333;DHT22;25748;46.670;14.272;2024-03-07T04:29:32;0.30;71.00
38333;DHT22;25748;46.670;14.272;2024-03-07T04:31:58;0.30;71.00
38333;DHT22;25748;46.670;14.272;2024-03-07T04:34:24;0.30;70.70
38333;DHT22;25748;46.670;14.272;2024-03-07T04:36:50;0.30;70.90
38333;DHT22;25748;46.670;14.272;2024-03-07T04:39:16;0.30;71.00
38333;DHT22;25748;46.670;14.272;2024-03-07T04:42:09;0.30;70.90
38333;DHT22;25748;46.670;14.272;2024-03-07T04:44:36;0.20;70.90
38333;DHT22;25748;46.670;14.272;2024-03-07T04:47:03;0.10;70.00
38333;DHT22;25748;46.670;14.272;2024-03-07T04:49:30;0.10;70.50
38333;DHT22;25748;46.670;14.272;2024-03-07T04:51:58;0.10;70.70
38333;DHT22;25748;46.670;14.272;2024-03-07T04:54:26;0.10;70.90
38333;DHT22;25748;46.670;14.272;2024-03-07T04:56:52;0.00;70.90
38333;DHT22;25748;46.670;14.272;2024-03-07T04:59:19;0.10;71.00
38333;DHT22;25748;46.670;14.272;2024-03-07T05:01:46;0.10;71.60
38333;DHT22;25748;46.670;14.272;2024-03-07T05:04:13;0.10;71.40
38333;DHT22;25748;46.670;14.272;2024-03-07T05:06:39;0.00;71.30
38333;DHT22;25748;46.670;14.272;2024-03-07T05:09:07;0.00;71.30
38333;DHT22;25748;46.670;14.272;2024-03-07T05:11:35;0.00;71.30
38333;DHT22;25748;46.670;14.272;2024-03-07T05:14:01;0.00;71.40
38333;DHT22;25748;46.670;14.272;2024-03-07T05:16:28;0.00;71.50
38333;DHT22;25748;46.670;14.272;2024-03-07T05:18:54;0.00;71.50
38333;DHT22;25748;46.670;14.272;2024-03-07T05:21:20;0.00;71.60
38333;DHT22;25748;46.670;14.272;2024-03-07T05:24:01;0.10;71.70
38333;DHT22;25748;46.670;14.272;2024-03-07T05:26:28;0.00;71.50
38333;DHT22;25748;46.670;14.272;2024-03-07T05:28:55;0.00;71.60
38333;DHT22;25748;46.670;14.272;2024-03-07T05:31:21;0.00;71.70
38333;DHT22;25748;46.670;14.272;2024-03-07T05:33:47;0.10;72.10
38333;DHT22;25748;46.670;14.272;2024-03-07T05:36:13;0.10;72.30
38333;DHT22;25748;46.670;14.272;2024-03-07T05:38:42;0.20;72.60
38333;DHT22;25748;46.670;14.272;2024-03-07T05:41:13;0.20;72.80
38333;DHT22;25748;46.670;14.272;2024-03-07T05:43:39;0.30;73.00
38333;DHT22;25748;46.670;14.272;2024-03-07T05:46:05;0.30;73.00
38333;DHT22;25748;46.670;14.272;2024-03-07T05:48:35;0.30;73.10
38333;DHT22;25748;46.670;14.272;2024-03-07T05:51:01;0.30;73.20
38333;DHT22;25748;46.670;14.272;2024-03-07T05:53:27;0.40;73.30
38333;DHT22;25748;46.670;14.272;2024-03-07T05:55:53;0.40;73.40
38333;DHT22;25748;46.670;14.272;2024-03-07T05:58:19;0.50;73.50
38333;DHT22;25748;46.670;14.272;2024-03-07T06:00:48;0.50;73.60
38333;DHT22;25748;46.670;14.272;2024-03-07T06:03:17;0.50;73.60
38333;DHT22;25748;46.670;14.272;2024-03-07T06:05:48;0.50;73.70
38333;DHT22;25748;46.670;14.272;2024-03-07T06:08:18;0.50;73.60
38333;DHT22;25748;46.670;14.272;2024-03-07T06:10:45;0.60;73.80
38333;DHT22;25748;46.670;14.272;2024-03-07T06:13:15;0.60;73.80
38333;DHT22;25748;46.670;14.272;2024-03-07T06:15:44;0.60;74.00
38333;DHT22;25748;46.670;14.272;2024-03-07T06:18:10;0.70;74.10
38333;DHT22;25748;46.670;14.272;2024-03-07T06:20:43;0.70;74.20
38333;DHT22;25748;46.670;14.272;2024-03-07T06:23:09;0.70;74.20
38333;DHT22;25748;46.670;14.272;2024-03-07T06:25:37;0.80;74.30
38333;DHT22;25748;46.670;14.272;2024-03-07T06:28:13;0.80;74.40
38333;DHT22;25748;46.670;14.272;2024-03-07T06:30:40;0.90;74.60
38333;DHT22;25748;46.670;14.272;2024-03-07T06:33:07;0.90;74.70
38333;DHT22;25748;46.670;14.272;2024-03-07T06:35:33;1.00;74.90
38333;DHT22;25748;46.670;14.272;2024-03-07T06:38:06;1.00;75.00
38333;DHT22;25748;46.670;14.272;2024-03-07T06:40:32;1.10;75.10
38333;DHT22;25748;46.670;14.272;2024-03-07T06:42:59;1.10;75.20
38333;DHT22;25748;46.670;14.272;2024-03-07T06:45:24;1.20;75.40
38333;DHT22;25748;46.670;14.272;2024-03-07T06:47:51;1.20;75.50
38333;DHT22;25748;46.670;14.272;2024-03-07T06:50:18;1.30;75.70
38333;DHT22;25748;46.670;14.272;2024-03-07T06:52:48;1.30;75.80
38333;DHT22;25748;46.670;14.272;2024-03-07T06:55:18;1.40;76.00
38333;DHT22;25748;46.670;14.272;2024-03-07T06:57:44;1.50;76.20
38333;DHT22;25748;46.670;14.272;2024-03-07T07:00:14;1.60;76.50
38333;DHT22;25748;46.670;14.272;2024-03-07T07:02:48;1.70;76.70
38333;DHT22;25748;46.670;14.272;2024-03-07T07:05:14;1.70;76.90
38333;DHT22;25748;46.670;14.272;2024-03-07T07:07:47;1.90;77.10
38333;DHT22;25748;46.670;14.272;2024-03-07T07:10:13;1.90;77.30
38333;DHT22;25748;46.670;14.272;2024-03-07T07:12:47;2.00;77.40
38333;DHT22;25748;46.670;14.272;2024-03-07T07:15:17;2.10;77.60
38333;DHT22;25748;46.670;14.272;2024-03-07T07:17:47;2.20;77.70
38333;DHT22;25748;46.670;14.272;2024-03-07T07:20:18;2.30;77.90
38333;DHT22;25748;46.670;14.272;2024-03-07T07:22:46;2.30;78.00
38333;DHT22;25748;46.670;14.272;2024-03-07T07:25:15;2.50;78.20
38333;DHT22;25748;46.670;14.272;2024-03-07T07:27:47;2.50;78.30
38333;DHT22;25748;46.670;14.272;2024-03-07T07:30:18;2.60;78.40
38333;DHT22;25748;46.670;14.272;2024-03-07T07:32:44;2.70;78.50
38333;DHT22;25748;46.670;14.272;2024-03-07T07:35:11;2.80;78.70
38333;DHT22;25748;46.670;14.272;2024-03-07T07:40:12;3.00;79.10
38333;DHT22;25748;46.670;14.272;2024-03-07T07:42:40;3.10;79.20
38333;DHT22;25748;46.670;14.272;2024-03-07T07:45:08;3.20;79.30
38333;DHT22;25748;46.670;14.272;2024-03-07T07:47:38;3.20;79.40
38333;DHT22;25748;46.670;14.272;2024-03-07T07:50:09;3.30;79.50
38333;DHT22;25748;46.670;14.272;2024-03-07T07:52:58;3.40;79.60
38333;DHT22;25748;46.670;14.272;2024-03-07T07:55:25;3.60;79.80
38333;DHT22;25748;46.670;14.272;2024-03-07T07:57:59;3.60;79.80
38333;DHT22;25748;46.670;14.272;2024-03-07T08:00:26;3.70;79.90
38333;DHT22;25748;46.670;14.272;2024-03-07T08:03:01;3.80;80.00
38333;DHT22;25748;46.670;14.272;2024-03-07T08:05:28;4.00;80.20
38333;DHT22;25748;46.670;14.272;2024-03-07T08:08:02;4.00;80.00
38333;DHT22;25748;46.670;14.272;2024-03-07T08:10:30;4.10;79.80
38333;DHT22;25748;46.670;14.272;2024-03-07T08:13:00;4.20;79.60
38333;DHT22;25748;46.670;14.272;2024-03-07T08:15:27;4.30;79.50
38333;DHT22;25748;46.670;14.272;2024-03-07T08:17:53;4.30;79.70
38333;DHT22;25748;46.670;14.272;2024-03-07T08:20:21;4.40;79.60
38333;DHT22;25748;46.670;14.272;2024-03-07T08:22:51;4.50;79.20
38333;DHT22;25748;46.670;14.272;2024-03-07T08:25:19;4.60;79.40
38333;DHT22;25748;46.670;14.272;2024-03-07T08:27:47;4.70;79.40
38333;DHT22;25748;46.670;14.272;2024-03-07T08:30:14;4.70;79.00
38333;DHT22;25748;46.670;14.272;2024-03-07T08:32:44;4.80;78.20
38333;DHT22;25748;46.670;14.272;2024-03-07T08:35:10;4.90;78.30
38333;DHT22;25748;46.670;14.272;2024-03-07T08:37:44;5.00;78.30
38333;DHT22;25748;46.670;14.272;2024-03-07T08:40:11;5.10;78.30
38333;DHT22;25748;46.670;14.272;2024-03-07T08:42:46;5.20;78.50
38333;DHT22;25748;46.670;14.272;2024-03-07T08:45:12;5.40;78.50
38333;DHT22;25748;46.670;14.272;2024-03-07T08:47:43;5.60;78.80
38333;DHT22;25748;46.670;14.272;2024-03-07T08:50:09;5.80;78.60
38333;DHT22;25748;46.670;14.272;2024-03-07T08:52:35;6.00;77.90
38333;DHT22;25748;46.670;14.272;2024-03-07T08:55:02;6.10;77.10
38333;DHT22;25748;46.670;14.272;2024-03-07T08:57:28;6.30;77.30
38333;DHT22;25748;46.670;14.272;2024-03-07T08:59:54;6.60;77.00
38333;DHT22;25748;46.670;14.272;2024-03-07T09:02:20;6.80;77.10
38333;DHT22;25748;46.670;14.272;2024-03-07T09:04:45;7.00;74.50
38333;DHT22;25748;46.670;14.272;2024-03-07T09:07:11;7.20;73.80
38333;DHT22;25748;46.670;14.272;2024-03-07T09:09:43;7.50;73.50
38333;DHT22;25748;46.670;14.272;2024-03-07T09:12:10;7.70;72.70
38333;DHT22;25748;46.670;14.272;2024-03-07T09:14:36;8.00;70.40
38333;DHT22;25748;46.670;14.272;2024-03-07T09:17:03;8.30;68.80
38333;DHT22;25748;46.670;14.272;2024-03-07T09:19:30;8.60;68.80
38333;DHT22;25748;46.670;14.272;2024-03-07T09:21:56;8.80;65.80
38333;DHT22;25748;46.670;14.272;2024-03-07T09:24:22;9.10;66.70
38333;DHT22;25748;46.670;14.272;2024-03-07T09:26:51;9.30;66.10
38333;DHT22;25748;46.670;14.272;2024-03-07T09:29:19;9.60;63.90
38333;DHT22;25748;46.670;14.272;2024-03-07T09:31:46;9.80;63.20
38333;DHT22;25748;46.670;14.272;2024-03-07T09:34:12;10.10;63.20
38333;DHT22;25748;46.670;14.272;2024-03-07T09:36:41;10.30;62.00
38333;DHT22;25748;46.670;14.272;2024-03-07T09:39:08;10.60;60.40
38333;DHT22;25748;46.670;14.272;2024-03-07T09:41:41;10.80;59.90
38333;DHT22;25748;46.670;14.272;2024-03-07T09:44:09;11.00;59.50
38333;DHT22;25748;46.670;14.272;2024-03-07T09:46:38;11.20;58.10
38333;DHT22;25748;46.670;14.272;2024-03-07T09:49:07;11.40;56.30
38333;DHT22;25748;46.670;14.272;2024-03-07T09:51:36;11.50;55.70
38333;DHT22;25748;46.670;14.272;2024-03-07T09:54:02;11.70;55.10
38333;DHT22;25748;46.670;14.272;2024-03-07T09:56:30;11.90;54.30
38333;DHT22;25748;46.670;14.272;2024-03-07T09:58:58;12.00;53.80
38333;DHT22;25748;46.670;14.272;2024-03-07T10:01:27;12.10;53.50
38333;DHT22;25748;46.670;14.272;2024-03-07T10:03:58;12.20;52.50
38333;DHT22;25748;46.670;14.272;2024-03-07T10:06:24;12.50;53.40
38333;DHT22;25748;46.670;14.272;2024-03-07T10:08:55;12.60;52.50
38333;DHT22;25748;46.670;14.272;2024-03-07T10:11:21;12.80;51.80
38333;DHT22;25748;46.670;14.272;2024-03-07T10:13:48;12.90;51.70
38333;DHT22;25748;46.670;14.272;2024-03-07T10:16:16;13.00;51.40
38333;DHT22;25748;46.670;14.272;2024-03-07T10:18:44;13.20;51.10
38333;DHT22;25748;46.670;14.272;2024-03-07T10:21:13;13.30;49.20
38333;DHT22;25748;46.670;14.272;2024-03-07T10:23:39;13.40;47.60
38333;DHT22;25748;46.670;14.272;2024-03-07T10:26:06;13.50;48.10
38333;DHT22;25748;46.670;14.272;2024-03-07T10:28:32;13.60;48.00
38333;DHT22;25748;46.670;14.272;2024-03-07T10:30:59;13.70;46.90
38333;DHT22;25748;46.670;14.272;2024-03-07T10:33:28;13.80;45.30
38333;DHT22;25748;46.670;14.272;2024-03-07T10:35:58;13.90;46.00
38333;DHT22;25748;46.670;14.272;2024-03-07T10:38:24;14.00;45.80
38333;DHT22;25748;46.670;14.272;2024-03-07T10:40:54;14.00;45.00
38333;DHT22;25748;46.670;14.272;2024-03-07T10:43:21;13.80;43.50
38333;DHT22;25748;46.670;14.272;2024-03-07T10:45:48;13.80;41.90
38333;DHT22;25748;46.670;14.272;2024-03-07T10:48:19;13.60;42.50
38333;DHT22;25748;46.670;14.272;2024-03-07T10:51:10;13.60;43.50
38333;DHT22;25748;46.670;14.272;2024-03-07T10:53:49;13.60;43.70
38333;DHT22;25748;46.670;14.272;2024-03-07T10:56:44;13.50;43.80
38333;DHT22;25748;46.670;14.272;2024-03-07T10:59:22;13.50;44.20
38333;DHT22;25748;46.670;14.272;2024-03-07T11:02:18;13.40;44.50
38333;DHT22;25748;46.670;14.272;2024-03-07T11:04:47;13.20;43.80
38333;DHT22;25748;46.670;14.272;2024-03-07T11:07:22;13.10;42.90
38333;DHT22;25748;46.670;14.272;2024-03-07T11:09:49;13.10;43.00
38333;DHT22;25748;46.670;14.272;2024-03-07T11:12:19;13.00;42.60
38333;DHT22;25748;46.670;14.272;2024-03-07T11:14:48;13.00;42.10
38333;DHT22;25748;46.670;14.272;2024-03-07T11:17:15;13.00;43.30
38333;DHT22;25748;46.670;14.272;2024-03-07T11:19:41;13.10;42.70
38333;DHT22;25748;46.670;14.272;2024-03-07T11:22:07;13.20;43.20
38333;DHT22;25748;46.670;14.272;2024-03-07T11:24:41;13.20;42.90
38333;DHT22;25748;46.670;14.272;2024-03-07T11:27:09;13.30;41.40
38333;DHT22;25748;46.670;14.272;2024-03-07T11:29:39;13.40;42.70
38333;DHT22;25748;46.670;14.272;2024-03-07T11:32:15;13.30;42.00
38333;DHT22;25748;46.670;14.272;2024-03-07T11:34:45;13.40;42.00
38333;DHT22;25748;46.670;14.272;2024-03-07T11:37:20;13.40;42.80
38333;DHT22;25748;46.670;14.272;2024-03-07T11:39:49;13.50;42.20
38333;DHT22;25748;46.670;14.272;2024-03-07T11:42:35;13.50;42.90
38333;DHT22;25748;46.670;14.272;2024-03-07T11:45:02;13.50;43.10
38333;DHT22;25748;46.670;14.272;2024-03-07T11:47:38;13.50;42.40
38333;DHT22;25748;46.670;14.272;2024-03-07T11:50:07;13.50;42.80
38333;DHT22;25748;46.670;14.272;2024-03-07T11:52:39;13.50;43.00
38333;DHT22;25748;46.670;14.272;2024-03-07T11:55:09;13.50;42.00
38333;DHT22;25748;46.670;14.272;2024-03-07T11:57:36;13.50;42.60
38333;DHT22;25748;46.670;14.272;2024-03-07T12:00:03;13.50;42.50
38333;DHT22;25748;46.670;14.272;2024-03-07T12:02:37;13.50;42.20
38333;DHT22;25748;46.670;14.272;2024-03-07T12:05:06;13.40;41.60
38333;DHT22;25748;46.670;14.272;2024-03-07T12:07:32;13.40;42.30
38333;DHT22;25748;46.670;14.272;2024-03-07T12:09:59;13.40;42.20
38333;DHT22;25748;46.670;14.272;2024-03-07T12:12:29;13.20;42.50
38333;DHT22;25748;46.670;14.272;2024-03-07T12:14:54;13.20;43.00
38333;DHT22;25748;46.670;14.272;2024-03-07T12:17:21;13.20;43.40
38333;DHT22;25748;46.670;14.272;2024-03-07T12:19:47;13.20;43.80
38333;DHT22;25748;46.670;14.272;2024-03-07T12:22:13;13.20;43.00
38333;DHT22;25748;46.670;14.272;2024-03-07T12:24:39;13.20;42.80
38333;DHT22;25748;46.670;14.272;2024-03-07T12:27:12;13.20;42.60
38333;DHT22;25748;46.670;14.272;2024-03-07T12:29:42;13.20;42.60
38333;DHT22;25748;46.670;14.272;2024-03-07T12:32:13;13.20;41.70
38333;DHT22;25748;46.670;14.272;2024-03-07T12:34:40;13.10;42.80
38333;DHT22;25748;46.670;14.272;2024-03-07T12:37:14;13.10;42.60
38333;DHT22;25748;46.670;14.272;2024-03-07T12:39:42;13.00;42.80
38333;DHT22;25748;46.670;14.272;2024-03-07T12:42:18;12.90;41.50
38333;DHT22;25748;46.670;14.272;2024-03-07T12:44:46;12.60;42.30
38333;DHT22;25748;46.670;14.272;2024-03-07T12:47:12;12.30;43.20
38333;DHT22;25748;46.670;14.272;2024-03-07T12:49:42;11.90;44.10
38333;DHT22;25748;46.670;14.272;2024-03-07T12:52:08;11.70;45.40
38333;DHT22;25748;46.670;14.272;2024-03-07T12:54:35;11.50;46.30
38333;DHT22;25748;46.670;14.272;2024-03-07T12:57:06;11.40;46.70
38333;DHT22;25748;46.670;14.272;2024-03-07T12:59:32;11.20;47.00
38333;DHT22;25748;46.670;14.272;2024-03-07T13:01:57;11.00;46.80
38333;DHT22;25748;46.670;14.272;2024-03-07T13:04:23;10.90;47.40
38333;DHT22;25748;46.670;14.272;2024-03-07T13:06:52;10.70;47.80
38333;DHT22;25748;46.670;14.272;2024-03-07T13:09:18;10.60;48.70
38333;DHT22;25748;46.670;14.272;2024-03-07T13:11:53;10.50;47.60
38333;DHT22;25748;46.670;14.272;2024-03-07T13:14:18;10.40;48.40
38333;DHT22;25748;46.670;14.272;2024-03-07T13:16:44;10.40;49.00
38333;DHT22;25748;46.670;14.272;2024-03-07T13:19:10;10.40;48.90
38333;DHT22;25748;46.670;14.272;2024-03-07T13:21:38;10.40;48.00
38333;DHT22;25748;46.670;14.272;2024-03-07T13:24:05;10.40;48.20
38333;DHT22;25748;46.670;14.272;2024-03-07T13:26:31;10.40;48.00
38333;DHT22;25748;46.670;14.272;2024-03-07T13:28:57;10.40;48.20
38333;DHT22;25748;46.670;14.272;2024-03-07T13:31:27;10.40;47.40
38333;DHT22;25748;46.670;14.272;2024-03-07T13:33:55;10.40;47.00
38333;DHT22;25748;46.670;14.272;2024-03-07T13:36:21;10.50;47.40
38333;DHT22;25748;46.670;14.272;2024-03-07T13:38:51;10.50;47.80
38333;DHT22;25748;46.670;14.272;2024-03-07T13:41:21;10.50;48.50
38333;DHT22;25748;46.670;14.272;2024-03-07T13:43:47;10.50;48.70
38333;DHT22;25748;46.670;14.272;2024-03-07T13:46:14;10.40;48.40
38333;DHT22;25748;46.670;14.272;2024-03-07T13:48:41;10.40;48.20
38333;DHT22;25748;46.670;14.272;2024-03-07T13:51:09;10.40;48.80
38333;DHT22;25748;46.670;14.272;2024-03-07T13:53:35;10.30;48.90
38333;DHT22;25748;46.670;14.272;2024-03-07T14:22:16;9.80;50.00
38333;DHT22;25748;46.670;14.272;2024-03-07T14:33:10;9.40;51.00
38333;DHT22;25748;46.670;14.272;2024-03-07T14:36:02;9.40;51.20
38333;DHT22;25748;46.670;14.272;2024-03-07T14:38:44;9.30;50.20
38333;DHT22;25748;46.670;14.272;2024-03-07T14:41:15;9.30;50.60
38333;DHT22;25748;46.670;14.272;2024-03-07T14:43:42;9.20;50.90
38333;DHT22;25748;46.670;14.272;2024-03-07T14:46:13;9.20;50.30
38333;DHT22;25748;46.670;14.272;2024-03-07T14:48:39;9.10;50.80
38333;DHT22;25748;46.670;14.272;2024-03-07T14:51:07;9.00;51.00
38333;DHT22;25748;46.670;14.272;2024-03-07T14:53:33;9.00;51.20
38333;DHT22;25748;46.670;14.272;2024-03-07T14:55:59;9.00;51.60
38333;DHT22;25748;46.670;14.272;2024-03-07T14:58:25;9.00;52.00
38333;DHT22;25748;46.670;14.272;2024-03-07T15:00:52;8.90;52.20
38333;DHT22;25748;46.670;14.272;2024-03-07T15:03:20;8.90;52.30
38333;DHT22;25748;46.670;14.272;2024-03-07T15:05:46;8.90;52.60
38333;DHT22;25748;46.670;14.272;2024-03-07T15:08:14;8.90;52.60
38333;DHT22;25748;46.670;14.272;2024-03-07T15:10:52;8.80;52.70
38333;DHT22;25748;46.670;14.272;2024-03-07T15:13:19;8.80;52.90
38333;DHT22;25748;46.670;14.272;2024-03-07T15:15:45;8.80;52.80
38333;DHT22;25748;46.670;14.272;2024-03-07T15:18:12;8.80;52.80
38333;DHT22;25748;46.670;14.272;2024-03-07T15:20:37;8.80;52.90
38333;DHT22;25748;46.670;14.272;2024-03-07T15:23:03;8.80;52.70
38333;DHT22;25748;46.670;14.272;2024-03-07T15:25:29;8.80;52.80
38333;DHT22;25748;46.670;14.272;2024-03-07T15:27:56;8.80;52.80
38333;DHT22;25748;46.670;14.272;2024-03-07T15:30:24;8.70;52.90
38333;DHT22;25748;46.670;14.272;2024-03-07T15:32:51;8.70;52.50
38333;DHT22;25748;46.670;14.272;2024-03-07T15:35:17;8.70;52.40
38333;DHT22;25748;46.670;14.272;2024-03-07T15:37:48;8.70;52.20
38333;DHT22;25748;46.670;14.272;2024-03-07T15:40:15;8.70;52.30
38333;DHT22;25748;46.670;14.272;2024-03-07T15:42:41;8.60;52.70
38333;DHT22;25748;46.670;14.272;2024-03-07T15:45:08;8.60;52.40
38333;DHT22;25748;46.670;14.272;2024-03-07T15:47:59;8.60;52.80
38333;DHT22;25748;46.670;14.272;2024-03-07T15:50:30;8.60;53.00
38333;DHT22;25748;46.670;14.272;2024-03-07T15:52:57;8.50;52.90
38333;DHT22;25748;46.670;14.272;2024-03-07T15:55:25;8.50;52.80
38333;DHT22;25748;46.670;14.272;2024-03-07T15:57:54;8.50;52.60
38333;DHT22;25748;46.670;14.272;2024-03-07T16:00:23;8.40;52.60
38333;DHT22;25748;46.670;14.272;2024-03-07T16:02:59;8.40;52.50
38333;DHT22;25748;46.670;14.272;2024-03-07T16:05:27;8.40;52.10
38333;DHT22;25748;46.670;14.272;2024-03-07T16:07:59;8.40;52.00
38333;DHT22;25748;46.670;14.272;2024-03-07T16:10:27;8.30;51.80
38333;DHT22;25748;46.670;14.272;2024-03-07T16:12:57;8.30;51.90